sensor_id;sensor_type;location;lat;lon;timestamp;P1;durP1;ratioP1;P2;durP2;ratioP2
40244;SDS011;25963;42.694;23.600;2022-10-22T00:01:01;60.40;;;39.67;;
40244;SDS011;25963;42.694;23.600;2022-10-22T00:03:27;33.95;;;22.63;;
40244;SDS011;25963;42.694;23.600;2022-10-22T00:05:53;28.45;;;17.63;;
40244;SDS011;25963;42.694;23.600;2022-10-22T00:08:18;22.42;;;14.57;;
40244;SDS011;25963;42.694;23.600;2022-10-22T00:10:44;23.73;;;14.80;;
40244;SDS011;25963;42.694;23.600;2022-10-22T00:13:10;34.70;;;24.52;;
40244;SDS011;25963;42.694;23.600;2022-10-22T00:15:36;26.13;;;17.42;;
40244;SDS011;25963;42.694;23.600;2022-10-22T00:18:01;31.60;;;23.60;;
40244;SDS011;25963;42.694;23.600;2022-10-22T00:20:27;31.13;;;22.25;;
40244;SDS011;25963;42.694;23.600;2022-10-22T00:22:52;27.90;;;18.75;;
40244;SDS011;25963;42.694;23.600;2022-10-22T00:25:18;30.38;;;16.77;;
40244;SDS011;25963;42.694;23.600;2022-10-22T00:27:43;26.60;;;18.55;;
40244;SDS011;25963;42.694;23.600;2022-10-22T00:30:09;21.90;;;14.57;;
40244;SDS011;25963;42.694;23.600;2022-10-22T00:32:34;24.00;;;14.27;;
40244;SDS011;25963;42.694;23.600;2022-10-22T00:35:00;25.27;;;14.68;;
40244;SDS011;25963;42.694;23.600;2022-10-22T00:37:25;31.38;;;16.98;;
40244;SDS011;25963;42.694;23.600;2022-10-22T00:39:51;38.40;;;23.98;;
40244;SDS011;25963;42.694;23.600;2022-10-22T00:42:17;35.58;;;23.77;;
40244;SDS011;25963;42.694;23.600;2022-10-22T00:47:36;25.42;;;15.73;;
40244;SDS011;25963;42.694;23.600;2022-10-22T00:50:02;24.55;;;15.23;;
40244;SDS011;25963;42.694;23.600;2022-10-22T00:52:35;24.10;;;17.75;;
40244;SDS011;25963;42.694;23.600;2022-10-22T00:55:00;26.63;;;17.90;;
40244;SDS011;25963;42.694;23.600;2022-10-22T00:57:26;30.50;;;17.67;;
40244;SDS011;25963;42.694;23.600;2022-10-22T00:59:52;25.80;;;16.67;;
40244;SDS011;25963;42.694;23.600;2022-10-22T01:02:19;24.13;;;16.95;;
40244;SDS011;25963;42.694;23.600;2022-10-22T01:04:45;25.38;;;17.52;;
40244;SDS011;25963;42.694;23.600;2022-10-22T01:07:15;27.70;;;20.35;;
40244;SDS011;25963;42.694;23.600;2022-10-22T01:28:17;27.30;;;17.00;;
40244;SDS011;25963;42.694;23.600;2022-10-22T01:30:52;29.67;;;16.70;;
40244;SDS011;25963;42.694;23.600;2022-10-22T01:33:22;28.42;;;17.80;;
40244;SDS011;25963;42.694;23.600;2022-10-22T01:35:50;27.58;;;17.05;;
40244;SDS011;25963;42.694;23.600;2022-10-22T01:38:18;26.80;;;16.73;;
40244;SDS011;25963;42.694;23.600;2022-10-22T01:40:47;26.85;;;17.00;;
40244;SDS011;25963;42.694;23.600;2022-10-22T01:43:15;26.65;;;18.45;;
40244;SDS011;25963;42.694;23.600;2022-10-22T01:45:47;24.73;;;16.77;;
40244;SDS011;25963;42.694;23.600;2022-10-22T01:53:53;30.70;;;17.40;;
40244;SDS011;25963;42.694;23.600;2022-10-22T02:04:32;25.70;;;16.02;;
40244;SDS011;25963;42.694;23.600;2022-10-22T02:07:08;22.67;;;14.85;;
40244;SDS011;25963;42.694;23.600;2022-10-22T02:09:38;25.80;;;14.77;;
40244;SDS011;25963;42.694;23.600;2022-10-22T02:12:05;22.70;;;13.73;;
40244;SDS011;25963;42.694;23.600;2022-10-22T02:14:33;19.77;;;13.98;;
40244;SDS011;25963;42.694;23.600;2022-10-22T02:17:01;22.65;;;14.65;;
40244;SDS011;25963;42.694;23.600;2022-10-22T02:22:02;20.35;;;13.80;;
40244;SDS011;25963;42.694;23.600;2022-10-22T02:24:28;23.10;;;15.15;;
40244;SDS011;25963;42.694;23.600;2022-10-22T02:29:51;21.42;;;14.55;;
40244;SDS011;25963;42.694;23.600;2022-10-22T02:32:20;23.25;;;14.75;;
40244;SDS011;25963;42.694;23.600;2022-10-22T02:34:50;32.28;;;17.77;;
40244;SDS011;25963;42.694;23.600;2022-10-22T02:37:18;37.90;;;22.27;;
40244;SDS011;25963;42.694;23.600;2022-10-22T02:39:45;31.27;;;20.10;;
40244;SDS011;25963;42.694;23.600;2022-10-22T02:42:11;26.45;;;15.35;;
40244;SDS011;25963;42.694;23.600;2022-10-22T02:44:36;22.50;;;14.65;;
40244;SDS011;25963;42.694;23.600;2022-10-22T02:47:02;22.08;;;13.82;;
40244;SDS011;25963;42.694;23.600;2022-10-22T02:49:27;23.13;;;14.23;;
40244;SDS011;25963;42.694;23.600;2022-10-22T02:51:53;21.35;;;14.38;;
40244;SDS011;25963;42.694;23.600;2022-10-22T02:54:18;23.08;;;14.40;;
40244;SDS011;25963;42.694;23.600;2022-10-22T02:56:44;25.63;;;15.57;;
40244;SDS011;25963;42.694;23.600;2022-10-22T02:59:09;23.70;;;13.90;;
40244;SDS011;25963;42.694;23.600;2022-10-22T03:01:35;22.25;;;15.55;;
40244;SDS011;25963;42.694;23.600;2022-10-22T03:04:00;30.75;;;15.73;;
40244;SDS011;25963;42.694;23.600;2022-10-22T03:06:25;21.90;;;14.05;;
40244;SDS011;25963;42.694;23.600;2022-10-22T03:08:51;32.92;;;16.13;;
40244;SDS011;25963;42.694;23.600;2022-10-22T03:11:16;28.27;;;13.75;;
40244;SDS011;25963;42.694;23.600;2022-10-22T03:13:42;26.05;;;14.40;;
40244;SDS011;25963;42.694;23.600;2022-10-22T03:16:07;24.63;;;14.70;;
40244;SDS011;25963;42.694;23.600;2022-10-22T03:18:32;20.80;;;13.73;;
40244;SDS011;25963;42.694;23.600;2022-10-22T03:21:03;28.60;;;13.68;;
40244;SDS011;25963;42.694;23.600;2022-10-22T03:23:33;21.45;;;13.80;;
40244;SDS011;25963;42.694;23.600;2022-10-22T03:26:00;20.45;;;13.13;;
40244;SDS011;25963;42.694;23.600;2022-10-22T03:28:25;97.28;;;42.88;;
40244;SDS011;25963;42.694;23.600;2022-10-22T03:30:51;44.10;;;23.38;;
40244;SDS011;25963;42.694;23.600;2022-10-22T03:33:16;22.27;;;14.48;;
40244;SDS011;25963;42.694;23.600;2022-10-22T03:35:43;32.00;;;18.63;;
40244;SDS011;25963;42.694;23.600;2022-10-22T03:38:10;31.98;;;16.83;;
40244;SDS011;25963;42.694;23.600;2022-10-22T03:40:37;69.35;;;38.50;;
40244;SDS011;25963;42.694;23.600;2022-10-22T03:43:02;106.50;;;54.13;;
40244;SDS011;25963;42.694;23.600;2022-10-22T03:45:28;62.15;;;34.10;;
40244;SDS011;25963;42.694;23.600;2022-10-22T03:47:53;72.38;;;36.78;;
40244;SDS011;25963;42.694;23.600;2022-10-22T03:50:19;87.30;;;45.92;;
40244;SDS011;25963;42.694;23.600;2022-10-22T03:52:44;84.57;;;46.03;;
40244;SDS011;25963;42.694;23.600;2022-10-22T03:55:10;43.13;;;23.58;;
40244;SDS011;25963;42.694;23.600;2022-10-22T03:57:35;30.60;;;18.98;;
40244;SDS011;25963;42.694;23.600;2022-10-22T04:00:00;39.63;;;22.25;;
40244;SDS011;25963;42.694;23.600;2022-10-22T04:02:26;33.15;;;20.50;;
40244;SDS011;25963;42.694;23.600;2022-10-22T04:04:51;45.80;;;31.52;;
40244;SDS011;25963;42.694;23.600;2022-10-22T04:07:17;30.92;;;18.33;;
40244;SDS011;25963;42.694;23.600;2022-10-22T04:09:42;25.80;;;17.35;;
40244;SDS011;25963;42.694;23.600;2022-10-22T04:12:08;27.83;;;17.48;;
40244;SDS011;25963;42.694;23.600;2022-10-22T04:14:33;28.58;;;17.10;;
40244;SDS011;25963;42.694;23.600;2022-10-22T04:16:59;27.27;;;15.13;;
40244;SDS011;25963;42.694;23.600;2022-10-22T04:19:25;26.65;;;16.48;;
40244;SDS011;25963;42.694;23.600;2022-10-22T04:21:50;25.20;;;16.50;;
40244;SDS011;25963;42.694;23.600;2022-10-22T04:24:16;29.85;;;17.20;;
40244;SDS011;25963;42.694;23.600;2022-10-22T04:26:41;25.30;;;15.60;;
40244;SDS011;25963;42.694;23.600;2022-10-22T04:29:07;25.15;;;16.00;;
40244;SDS011;25963;42.694;23.600;2022-10-22T04:31:32;27.48;;;16.08;;
40244;SDS011;25963;42.694;23.600;2022-10-22T04:33:59;25.90;;;16.52;;
40244;SDS011;25963;42.694;23.600;2022-10-22T04:36:25;26.25;;;16.65;;
40244;SDS011;25963;42.694;23.600;2022-10-22T04:38:52;25.88;;;17.13;;
40244;SDS011;25963;42.694;23.600;2022-10-22T04:41:23;29.95;;;18.00;;
40244;SDS011;25963;42.694;23.600;2022-10-22T04:43:51;28.33;;;17.55;;
40244;SDS011;25963;42.694;23.600;2022-10-22T04:46:18;27.70;;;17.77;;
40244;SDS011;25963;42.694;23.600;2022-10-22T04:48:44;30.63;;;17.25;;
40244;SDS011;25963;42.694;23.600;2022-10-22T04:51:11;26.63;;;17.60;;
40244;SDS011;25963;42.694;23.600;2022-10-22T04:53:41;25.98;;;17.58;;
40244;SDS011;25963;42.694;23.600;2022-10-22T04:56:17;37.10;;;20.20;;
40244;SDS011;25963;42.694;23.600;2022-10-22T04:58:46;27.13;;;17.48;;
40244;SDS011;25963;42.694;23.600;2022-10-22T05:01:20;24.27;;;16.67;;
40244;SDS011;25963;42.694;23.600;2022-10-22T05:03:48;25.48;;;17.15;;
40244;SDS011;25963;42.694;23.600;2022-10-22T05:06:14;27.55;;;17.88;;
40244;SDS011;25963;42.694;23.600;2022-10-22T05:08:40;28.67;;;19.98;;
40244;SDS011;25963;42.694;23.600;2022-10-22T05:11:14;24.40;;;17.48;;
40244;SDS011;25963;42.694;23.600;2022-10-22T05:13:42;25.00;;;16.20;;
40244;SDS011;25963;42.694;23.600;2022-10-22T05:16:07;77.82;;;43.75;;
40244;SDS011;25963;42.694;23.600;2022-10-22T05:18:34;87.60;;;43.63;;
40244;SDS011;25963;42.694;23.600;2022-10-22T05:21:03;96.03;;;51.53;;
40244;SDS011;25963;42.694;23.600;2022-10-22T05:23:32;76.85;;;39.67;;
40244;SDS011;25963;42.694;23.600;2022-10-22T05:26:00;77.00;;;41.97;;
40244;SDS011;25963;42.694;23.600;2022-10-22T05:28:26;91.03;;;39.80;;
40244;SDS011;25963;42.694;23.600;2022-10-22T05:30:52;31.70;;;19.92;;
40244;SDS011;25963;42.694;23.600;2022-10-22T05:33:19;34.40;;;20.90;;
40244;SDS011;25963;42.694;23.600;2022-10-22T05:35:46;45.25;;;27.38;;
40244;SDS011;25963;42.694;23.600;2022-10-22T05:38:12;59.75;;;30.13;;
40244;SDS011;25963;42.694;23.600;2022-10-22T05:40:37;67.20;;;33.45;;
40244;SDS011;25963;42.694;23.600;2022-10-22T05:43:03;102.88;;;42.88;;
40244;SDS011;25963;42.694;23.600;2022-10-22T05:45:28;41.38;;;23.70;;
40244;SDS011;25963;42.694;23.600;2022-10-22T05:47:53;48.53;;;26.45;;
40244;SDS011;25963;42.694;23.600;2022-10-22T05:50:19;31.60;;;20.30;;
40244;SDS011;25963;42.694;23.600;2022-10-22T05:52:44;23.90;;;17.25;;
40244;SDS011;25963;42.694;23.600;2022-10-22T05:55:10;26.98;;;18.08;;
40244;SDS011;25963;42.694;23.600;2022-10-22T05:57:35;24.63;;;17.15;;
40244;SDS011;25963;42.694;23.600;2022-10-22T06:00:00;26.58;;;17.80;;
40244;SDS011;25963;42.694;23.600;2022-10-22T06:02:26;29.60;;;18.73;;
40244;SDS011;25963;42.694;23.600;2022-10-22T06:04:51;28.00;;;18.30;;
40244;SDS011;25963;42.694;23.600;2022-10-22T06:07:17;28.98;;;18.25;;
40244;SDS011;25963;42.694;23.600;2022-10-22T06:09:42;38.60;;;21.67;;
40244;SDS011;25963;42.694;23.600;2022-10-22T06:12:07;46.83;;;26.13;;
40244;SDS011;25963;42.694;23.600;2022-10-22T06:14:35;40.40;;;23.52;;
40244;SDS011;25963;42.694;23.600;2022-10-22T06:17:00;32.63;;;20.13;;
40244;SDS011;25963;42.694;23.600;2022-10-22T06:19:26;63.40;;;35.35;;
40244;SDS011;25963;42.694;23.600;2022-10-22T06:21:53;100.75;;;60.75;;
40244;SDS011;25963;42.694;23.600;2022-10-22T06:24:19;32.97;;;19.15;;
40244;SDS011;25963;42.694;23.600;2022-10-22T06:26:44;27.52;;;18.25;;
40244;SDS011;25963;42.694;23.600;2022-10-22T06:29:14;42.83;;;22.30;;
40244;SDS011;25963;42.694;23.600;2022-10-22T06:31:39;34.35;;;21.40;;
40244;SDS011;25963;42.694;23.600;2022-10-22T06:34:05;28.20;;;17.55;;
40244;SDS011;25963;42.694;23.600;2022-10-22T06:36:34;28.25;;;20.50;;
40244;SDS011;25963;42.694;23.600;2022-10-22T06:38:59;24.05;;;17.88;;
40244;SDS011;25963;42.694;23.600;2022-10-22T06:41:25;27.45;;;17.20;;
40244;SDS011;25963;42.694;23.600;2022-10-22T06:43:50;26.33;;;16.70;;
40244;SDS011;25963;42.694;23.600;2022-10-22T06:46:18;27.42;;;17.27;;
40244;SDS011;25963;42.694;23.600;2022-10-22T06:48:51;28.40;;;18.88;;
40244;SDS011;25963;42.694;23.600;2022-10-22T06:51:19;24.13;;;16.90;;
40244;SDS011;25963;42.694;23.600;2022-10-22T06:53:45;27.15;;;17.83;;
40244;SDS011;25963;42.694;23.600;2022-10-22T06:56:15;24.02;;;17.15;;
40244;SDS011;25963;42.694;23.600;2022-10-22T06:58:45;23.90;;;16.42;;
40244;SDS011;25963;42.694;23.600;2022-10-22T07:01:15;28.33;;;17.92;;
40244;SDS011;25963;42.694;23.600;2022-10-22T07:03:42;26.67;;;18.60;;
40244;SDS011;25963;42.694;23.600;2022-10-22T07:06:09;35.33;;;21.75;;
40244;SDS011;25963;42.694;23.600;2022-10-22T07:08:36;37.17;;;21.52;;
40244;SDS011;25963;42.694;23.600;2022-10-22T07:13:36;45.40;;;25.45;;
40244;SDS011;25963;42.694;23.600;2022-10-22T07:16:02;48.40;;;27.65;;
40244;SDS011;25963;42.694;23.600;2022-10-22T07:18:28;33.03;;;22.20;;
40244;SDS011;25963;42.694;23.600;2022-10-22T07:20:54;45.30;;;27.23;;
40244;SDS011;25963;42.694;23.600;2022-10-22T07:23:20;102.40;;;47.58;;
40244;SDS011;25963;42.694;23.600;2022-10-22T07:25:45;99.60;;;43.00;;
40244;SDS011;25963;42.694;23.600;2022-10-22T07:28:11;65.20;;;32.50;;
40244;SDS011;25963;42.694;23.600;2022-10-22T07:30:37;52.60;;;27.45;;
40244;SDS011;25963;42.694;23.600;2022-10-22T07:33:03;30.95;;;21.08;;
40244;SDS011;25963;42.694;23.600;2022-10-22T07:35:28;30.88;;;21.15;;
40244;SDS011;25963;42.694;23.600;2022-10-22T07:37:54;29.63;;;21.52;;
40244;SDS011;25963;42.694;23.600;2022-10-22T07:40:19;31.80;;;20.58;;
40244;SDS011;25963;42.694;23.600;2022-10-22T07:42:45;27.45;;;19.20;;
40244;SDS011;25963;42.694;23.600;2022-10-22T07:45:10;29.27;;;22.30;;
40244;SDS011;25963;42.694;23.600;2022-10-22T07:47:36;30.00;;;22.05;;
40244;SDS011;25963;42.694;23.600;2022-10-22T07:50:01;30.48;;;22.20;;
40244;SDS011;25963;42.694;23.600;2022-10-22T07:52:27;26.83;;;20.35;;
40244;SDS011;25963;42.694;23.600;2022-10-22T07:54:53;34.78;;;23.02;;
40244;SDS011;25963;42.694;23.600;2022-10-22T07:57:18;28.13;;;20.27;;
40244;SDS011;25963;42.694;23.600;2022-10-22T07:59:46;103.65;;;47.85;;
40244;SDS011;25963;42.694;23.600;2022-10-22T08:02:12;32.70;;;22.63;;
40244;SDS011;25963;42.694;23.600;2022-10-22T08:04:37;36.55;;;23.88;;
40244;SDS011;25963;42.694;23.600;2022-10-22T08:07:03;33.33;;;23.63;;
40244;SDS011;25963;42.694;23.600;2022-10-22T08:09:29;73.35;;;37.08;;
40244;SDS011;25963;42.694;23.600;2022-10-22T08:11:54;30.80;;;20.75;;
40244;SDS011;25963;42.694;23.600;2022-10-22T08:14:23;44.00;;;28.25;;
40244;SDS011;25963;42.694;23.600;2022-10-22T08:16:48;29.73;;;22.30;;
40244;SDS011;25963;42.694;23.600;2022-10-22T08:19:16;30.73;;;19.23;;
40244;SDS011;25963;42.694;23.600;2022-10-22T08:21:45;44.50;;;24.27;;
40244;SDS011;25963;42.694;23.600;2022-10-22T08:24:11;79.40;;;37.60;;
40244;SDS011;25963;42.694;23.600;2022-10-22T08:26:37;27.88;;;20.85;;
40244;SDS011;25963;42.694;23.600;2022-10-22T08:29:03;33.22;;;22.73;;
40244;SDS011;25963;42.694;23.600;2022-10-22T08:31:29;33.22;;;21.88;;
40244;SDS011;25963;42.694;23.600;2022-10-22T08:33:55;36.13;;;21.35;;
40244;SDS011;25963;42.694;23.600;2022-10-22T08:36:21;31.92;;;19.88;;
40244;SDS011;25963;42.694;23.600;2022-10-22T08:38:46;70.13;;;35.95;;
40244;SDS011;25963;42.694;23.600;2022-10-22T08:41:16;28.55;;;19.55;;
40244;SDS011;25963;42.694;23.600;2022-10-22T08:49:16;30.20;;;20.33;;
40244;SDS011;25963;42.694;23.600;2022-10-22T08:51:45;33.33;;;22.42;;
40244;SDS011;25963;42.694;23.600;2022-10-22T08:54:26;35.85;;;23.23;;
40244;SDS011;25963;42.694;23.600;2022-10-22T08:59:30;31.90;;;22.30;;
40244;SDS011;25963;42.694;23.600;2022-10-22T09:02:00;60.60;;;30.13;;
40244;SDS011;25963;42.694;23.600;2022-10-22T09:04:33;55.33;;;30.23;;
40244;SDS011;25963;42.694;23.600;2022-10-22T09:07:07;28.08;;;18.90;;
40244;SDS011;25963;42.694;23.600;2022-10-22T09:09:35;51.72;;;26.42;;
40244;SDS011;25963;42.694;23.600;2022-10-22T09:14:32;49.75;;;28.20;;
40244;SDS011;25963;42.694;23.600;2022-10-22T09:25:27;22.83;;;18.55;;
40244;SDS011;25963;42.694;23.600;2022-10-22T09:27:54;21.88;;;15.95;;
40244;SDS011;25963;42.694;23.600;2022-10-22T09:30:26;19.60;;;16.30;;
40244;SDS011;25963;42.694;23.600;2022-10-22T09:32:59;62.90;;;32.80;;
40244;SDS011;25963;42.694;23.600;2022-10-22T09:35:27;24.55;;;15.27;;
40244;SDS011;25963;42.694;23.600;2022-10-22T09:37:53;52.95;;;27.77;;
40244;SDS011;25963;42.694;23.600;2022-10-22T09:40:20;24.05;;;15.60;;
40244;SDS011;25963;42.694;23.600;2022-10-22T09:42:47;86.32;;;42.47;;
40244;SDS011;25963;42.694;23.600;2022-10-22T09:45:18;22.55;;;16.90;;
40244;SDS011;25963;42.694;23.600;2022-10-22T09:47:45;23.38;;;15.77;;
40244;SDS011;25963;42.694;23.600;2022-10-22T09:52:44;19.92;;;14.80;;
40244;SDS011;25963;42.694;23.600;2022-10-22T09:55:18;23.25;;;15.07;;
40244;SDS011;25963;42.694;23.600;2022-10-22T09:57:51;19.30;;;14.98;;
40244;SDS011;25963;42.694;23.600;2022-10-22T10:00:22;18.98;;;14.35;;
40244;SDS011;25963;42.694;23.600;2022-10-22T10:02:52;19.13;;;15.90;;
40244;SDS011;25963;42.694;23.600;2022-10-22T10:05:19;20.10;;;15.02;;
40244;SDS011;25963;42.694;23.600;2022-10-22T10:10:17;18.55;;;15.18;;
40244;SDS011;25963;42.694;23.600;2022-10-22T10:15:42;26.88;;;17.75;;
40244;SDS011;25963;42.694;23.600;2022-10-22T10:18:17;34.20;;;19.63;;
40244;SDS011;25963;42.694;23.600;2022-10-22T10:26:02;19.65;;;14.27;;
40244;SDS011;25963;42.694;23.600;2022-10-22T10:31:03;24.67;;;15.93;;
40244;SDS011;25963;42.694;23.600;2022-10-22T10:33:51;21.90;;;15.43;;
40244;SDS011;25963;42.694;23.600;2022-10-22T10:39:02;20.38;;;12.95;;
40244;SDS011;25963;42.694;23.600;2022-10-22T10:41:49;20.23;;;15.68;;
40244;SDS011;25963;42.694;23.600;2022-10-22T10:47:03;21.70;;;13.27;;
40244;SDS011;25963;42.694;23.600;2022-10-22T10:49:44;16.83;;;12.85;;
40244;SDS011;25963;42.694;23.600;2022-10-22T10:58:24;20.85;;;12.35;;
40244;SDS011;25963;42.694;23.600;2022-10-22T11:00:53;16.05;;;13.07;;
40244;SDS011;25963;42.694;23.600;2022-10-22T11:06:06;16.05;;;12.27;;
40244;SDS011;25963;42.694;23.600;2022-10-22T11:08:41;24.92;;;13.48;;
40244;SDS011;25963;42.694;23.600;2022-10-22T11:11:17;15.85;;;13.93;;
40244;SDS011;25963;42.694;23.600;2022-10-22T11:16:43;36.35;;;21.75;;
40244;SDS011;25963;42.694;23.600;2022-10-22T11:19:18;26.45;;;14.40;;
40244;SDS011;25963;42.694;23.600;2022-10-22T11:22:05;14.63;;;11.20;;
40244;SDS011;25963;42.694;23.600;2022-10-22T11:29:57;15.15;;;10.73;;
40244;SDS011;25963;42.694;23.600;2022-10-22T11:32:27;11.10;;;10.00;;
40244;SDS011;25963;42.694;23.600;2022-10-22T11:34:57;37.72;;;25.77;;
40244;SDS011;25963;42.694;23.600;2022-10-22T11:37:25;19.38;;;11.35;;
40244;SDS011;25963;42.694;23.600;2022-10-22T11:40:21;11.20;;;10.00;;
40244;SDS011;25963;42.694;23.600;2022-10-22T11:43:02;13.27;;;11.15;;
40244;SDS011;25963;42.694;23.600;2022-10-22T11:45:37;14.77;;;9.60;;
40244;SDS011;25963;42.694;23.600;2022-10-22T11:48:06;18.08;;;11.27;;
40244;SDS011;25963;42.694;23.600;2022-10-22T12:00:52;12.10;;;9.55;;
40244;SDS011;25963;42.694;23.600;2022-10-22T12:03:48;20.23;;;13.93;;
40244;SDS011;25963;42.694;23.600;2022-10-22T12:06:22;11.63;;;10.43;;
40244;SDS011;25963;42.694;23.600;2022-10-22T12:17:04;18.58;;;13.02;;
40244;SDS011;25963;42.694;23.600;2022-10-22T12:19:38;17.02;;;11.73;;
40244;SDS011;25963;42.694;23.600;2022-10-22T12:24:31;17.83;;;10.63;;
40244;SDS011;25963;42.694;23.600;2022-10-22T12:27:01;36.50;;;25.53;;
40244;SDS011;25963;42.694;23.600;2022-10-22T12:29:29;20.30;;;14.45;;
40244;SDS011;25963;42.694;23.600;2022-10-22T12:31:56;17.30;;;10.85;;
40244;SDS011;25963;42.694;23.600;2022-10-22T12:34:26;16.67;;;11.50;;
40244;SDS011;25963;42.694;23.600;2022-10-22T12:36:53;16.80;;;9.95;;
40244;SDS011;25963;42.694;23.600;2022-10-22T12:39:20;14.15;;;11.43;;
40244;SDS011;25963;42.694;23.600;2022-10-22T12:41:46;28.30;;;16.77;;
40244;SDS011;25963;42.694;23.600;2022-10-22T12:44:13;17.58;;;11.75;;
40244;SDS011;25963;42.694;23.600;2022-10-22T12:46:41;13.40;;;10.32;;
40244;SDS011;25963;42.694;23.600;2022-10-22T12:49:16;11.85;;;10.18;;
40244;SDS011;25963;42.694;23.600;2022-10-22T12:51:45;44.35;;;22.10;;
40244;SDS011;25963;42.694;23.600;2022-10-22T12:54:27;23.20;;;14.27;;
40244;SDS011;25963;42.694;23.600;2022-10-22T12:56:55;15.32;;;11.07;;
40244;SDS011;25963;42.694;23.600;2022-10-22T12:59:22;23.98;;;10.75;;
40244;SDS011;25963;42.694;23.600;2022-10-22T13:01:50;17.92;;;14.40;;
40244;SDS011;25963;42.694;23.600;2022-10-22T13:04:19;19.38;;;13.65;;
40244;SDS011;25963;42.694;23.600;2022-10-22T13:09:38;22.58;;;15.25;;
40244;SDS011;25963;42.694;23.600;2022-10-22T13:12:22;21.38;;;13.32;;
40244;SDS011;25963;42.694;23.600;2022-10-22T13:14:49;20.48;;;12.00;;
40244;SDS011;25963;42.694;23.600;2022-10-22T13:17:15;40.38;;;25.80;;
40244;SDS011;25963;42.694;23.600;2022-10-22T13:22:31;22.33;;;12.38;;
40244;SDS011;25963;42.694;23.600;2022-10-22T13:25:20;17.70;;;10.40;;
40244;SDS011;25963;42.694;23.600;2022-10-22T13:27:47;21.50;;;12.85;;
40244;SDS011;25963;42.694;23.600;2022-10-22T13:32:52;11.98;;;9.32;;
40244;SDS011;25963;42.694;23.600;2022-10-22T13:35:23;13.73;;;9.40;;
40244;SDS011;25963;42.694;23.600;2022-10-22T13:37:51;16.05;;;8.98;;
40244;SDS011;25963;42.694;23.600;2022-10-22T13:40:17;15.93;;;9.50;;
40244;SDS011;25963;42.694;23.600;2022-10-22T13:42:42;13.57;;;9.85;;
40244;SDS011;25963;42.694;23.600;2022-10-22T13:45:08;13.55;;;9.98;;
40244;SDS011;25963;42.694;23.600;2022-10-22T13:47:33;16.33;;;10.18;;
40244;SDS011;25963;42.694;23.600;2022-10-22T13:50:00;20.10;;;12.98;;
40244;SDS011;25963;42.694;23.600;2022-10-22T13:52:37;14.52;;;11.77;;
40244;SDS011;25963;42.694;23.600;2022-10-22T13:55:39;19.98;;;11.13;;
40244;SDS011;25963;42.694;23.600;2022-10-22T14:00:36;14.15;;;11.45;;
40244;SDS011;25963;42.694;23.600;2022-10-22T14:03:05;17.42;;;10.52;;
40244;SDS011;25963;42.694;23.600;2022-10-22T14:05:35;12.25;;;9.23;;
40244;SDS011;25963;42.694;23.600;2022-10-22T14:08:00;14.27;;;9.77;;
40244;SDS011;25963;42.694;23.600;2022-10-22T14:10:26;18.58;;;10.20;;
40244;SDS011;25963;42.694;23.600;2022-10-22T14:12:52;18.08;;;9.85;;
40244;SDS011;25963;42.694;23.600;2022-10-22T14:15:18;14.52;;;8.98;;
40244;SDS011;25963;42.694;23.600;2022-10-22T14:17:55;18.67;;;10.50;;
40244;SDS011;25963;42.694;23.600;2022-10-22T14:20:24;16.25;;;9.43;;
40244;SDS011;25963;42.694;23.600;2022-10-22T14:22:52;20.27;;;9.88;;
40244;SDS011;25963;42.694;23.600;2022-10-22T14:25:19;11.40;;;8.77;;
40244;SDS011;25963;42.694;23.600;2022-10-22T14:27:47;16.02;;;9.18;;
40244;SDS011;25963;42.694;23.600;2022-10-22T14:30:14;18.75;;;10.20;;
40244;SDS011;25963;42.694;23.600;2022-10-22T14:32:41;12.77;;;9.77;;
40244;SDS011;25963;42.694;23.600;2022-10-22T14:35:09;14.20;;;10.35;;
40244;SDS011;25963;42.694;23.600;2022-10-22T14:37:37;12.57;;;9.60;;
40244;SDS011;25963;42.694;23.600;2022-10-22T14:40:02;27.42;;;13.43;;
40244;SDS011;25963;42.694;23.600;2022-10-22T14:42:28;36.08;;;18.70;;
40244;SDS011;25963;42.694;23.600;2022-10-22T14:44:54;24.27;;;13.93;;
40244;SDS011;25963;42.694;23.600;2022-10-22T14:47:19;38.92;;;18.40;;
40244;SDS011;25963;42.694;23.600;2022-10-22T14:49:45;45.75;;;24.27;;
40244;SDS011;25963;42.694;23.600;2022-10-22T14:52:11;34.63;;;19.20;;
40244;SDS011;25963;42.694;23.600;2022-10-22T14:54:36;56.95;;;32.03;;
40244;SDS011;25963;42.694;23.600;2022-10-22T14:57:02;48.60;;;28.88;;
40244;SDS011;25963;42.694;23.600;2022-10-22T14:59:28;43.00;;;28.08;;
40244;SDS011;25963;42.694;23.600;2022-10-22T15:01:55;38.17;;;21.42;;
40244;SDS011;25963;42.694;23.600;2022-10-22T15:04:21;36.63;;;20.98;;
40244;SDS011;25963;42.694;23.600;2022-10-22T15:06:47;39.85;;;23.30;;
40244;SDS011;25963;42.694;23.600;2022-10-22T15:09:12;48.15;;;28.38;;
40244;SDS011;25963;42.694;23.600;2022-10-22T15:11:38;42.58;;;25.83;;
40244;SDS011;25963;42.694;23.600;2022-10-22T15:14:06;69.82;;;41.10;;
40244;SDS011;25963;42.694;23.600;2022-10-22T15:16:33;47.00;;;28.55;;
40244;SDS011;25963;42.694;23.600;2022-10-22T15:18:58;44.38;;;27.75;;
40244;SDS011;25963;42.694;23.600;2022-10-22T15:21:24;38.60;;;18.17;;
40244;SDS011;25963;42.694;23.600;2022-10-22T15:23:50;36.30;;;17.50;;
40244;SDS011;25963;42.694;23.600;2022-10-22T15:26:15;33.60;;;21.48;;
40244;SDS011;25963;42.694;23.600;2022-10-22T15:28:41;38.88;;;24.83;;
40244;SDS011;25963;42.694;23.600;2022-10-22T15:31:07;44.28;;;26.42;;
40244;SDS011;25963;42.694;23.600;2022-10-22T15:33:36;42.03;;;23.67;;
40244;SDS011;25963;42.694;23.600;2022-10-22T15:36:09;50.45;;;25.70;;
40244;SDS011;25963;42.694;23.600;2022-10-22T15:38:36;46.33;;;25.05;;
40244;SDS011;25963;42.694;23.600;2022-10-22T15:41:05;42.80;;;22.85;;
40244;SDS011;25963;42.694;23.600;2022-10-22T15:43:33;40.95;;;24.55;;
40244;SDS011;25963;42.694;23.600;2022-10-22T15:48:40;43.50;;;25.33;;
40244;SDS011;25963;42.694;23.600;2022-10-22T15:51:07;40.17;;;23.20;;
40244;SDS011;25963;42.694;23.600;2022-10-22T15:53:33;71.43;;;26.35;;
40244;SDS011;25963;42.694;23.600;2022-10-22T15:55:59;66.10;;;25.25;;
40244;SDS011;25963;42.694;23.600;2022-10-22T15:58:24;66.05;;;24.10;;
40244;SDS011;25963;42.694;23.600;2022-10-22T16:00:50;43.75;;;24.23;;
40244;SDS011;25963;42.694;23.600;2022-10-22T16:03:15;46.83;;;23.90;;
40244;SDS011;25963;42.694;23.600;2022-10-22T16:05:48;49.67;;;23.77;;
40244;SDS011;25963;42.694;23.600;2022-10-22T16:08:14;49.10;;;22.90;;
40244;SDS011;25963;42.694;23.600;2022-10-22T16:10:44;48.33;;;22.73;;
40244;SDS011;25963;42.694;23.600;2022-10-22T16:13:11;53.03;;;24.77;;
40244;SDS011;25963;42.694;23.600;2022-10-22T16:15:36;55.60;;;28.38;;
40244;SDS011;25963;42.694;23.600;2022-10-22T16:18:01;45.03;;;29.88;;
40244;SDS011;25963;42.694;23.600;2022-10-22T16:20:27;48.17;;;27.42;;
40244;SDS011;25963;42.694;23.600;2022-10-22T16:22:52;41.75;;;27.48;;
40244;SDS011;25963;42.694;23.600;2022-10-22T16:25:18;38.17;;;23.45;;
40244;SDS011;25963;42.694;23.600;2022-10-22T16:27:44;30.17;;;19.08;;